createdAt,value
2022-10-24T00:02:19.278Z,11.40
2022-10-24T00:04:46.444Z,11.40
2022-10-24T00:07:13.381Z,11.40
2022-10-24T00:09:40.299Z,11.40
2022-10-24T00:12:08.372Z,11.30
2022-10-24T00:14:36.754Z,11.30
2022-10-24T00:17:12.940Z,11.20
2022-10-24T00:19:40.738Z,11.10
2022-10-24T00:22:24.416Z,11.00
2022-10-24T00:25:23.581Z,10.90
2022-10-24T00:27:51.041Z,10.80
2022-10-24T00:30:21.599Z,10.60
2022-10-24T00:33:03.873Z,10.60
2022-10-24T00:35:31.192Z,10.50
2022-10-24T00:38:01.355Z,10.40
2022-10-24T00:40:47.071Z,10.20
2022-10-24T00:43:28.112Z,10.20
2022-10-24T00:46:02.770Z,10.10
2022-10-24T00:48:50.178Z,10.00
2022-10-24T00:51:27.227Z,9.90
2022-10-24T00:53:58.832Z,9.80
2022-10-24T00:56:33.832Z,9.70
2022-10-24T00:59:09.294Z,9.70
2022-10-24T01:08:36.405Z,9.50
2022-10-24T01:11:51.552Z,9.40
2022-10-24T01:19:00.562Z,9.40
2022-10-24T01:22:11.103Z,9.30
2022-10-24T01:25:23.586Z,9.20
2022-10-24T01:29:04.773Z,9.30
2022-10-24T01:33:17.389Z,9.20
2022-10-24T01:35:53.780Z,9.10
2022-10-24T01:38:53.414Z,9.20
2022-10-24T01:41:31.169Z,9.20
2022-10-24T01:44:36.549Z,9.20
2022-10-24T01:47:36.255Z,9.10
2022-10-24T01:50:33.669Z,9.20
2022-10-24T01:53:05.072Z,9.30
2022-10-24T01:55:36.481Z,9.30
2022-10-24T01:58:03.470Z,9.30
2022-10-24T02:00:30.987Z,9.30
2022-10-24T02:03:04.867Z,9.30
2022-10-24T02:05:43.150Z,9.30
2022-10-24T02:08:15.183Z,9.30
2022-10-24T02:10:50.616Z,9.30
2022-10-24T02:28:12.654Z,9.30
2022-10-24T02:49:56.534Z,9.20
2022-10-24T02:52:24.283Z,9.10
2022-10-24T02:55:25.036Z,9.20
2022-10-24T02:58:32.801Z,9.20
2022-10-24T03:01:18.335Z,9.30
2022-10-24T03:03:45.704Z,9.30
2022-10-24T03:06:25.214Z,9.30
2022-10-24T03:09:50.662Z,9.30
2022-10-24T03:15:05.307Z,9.30
2022-10-24T03:17:35.310Z,9.40
2022-10-24T03:20:02.279Z,9.40
2022-10-24T03:22:30.752Z,9.40
2022-10-24T03:25:01.793Z,9.40
2022-10-24T03:27:28.969Z,9.40
2022-10-24T03:29:58.881Z,9.40
2022-10-24T03:34:53.807Z,9.40
2022-10-24T03:37:20.820Z,9.50
2022-10-24T03:39:48.385Z,9.50
2022-10-24T03:42:15.428Z,9.50
2022-10-24T03:44:42.403Z,9.50
2022-10-24T03:47:09.721Z,9.50
2022-10-24T03:49:36.706Z,9.50
2022-10-24T03:52:04.097Z,9.50
2022-10-24T03:54:31.589Z,9.60
2022-10-24T03:56:58.476Z,9.50
2022-10-24T03:59:25.459Z,9.60
2022-10-24T04:01:52.742Z,9.60
2022-10-24T04:04:19.746Z,9.60
2022-10-24T04:06:46.935Z,9.60
2022-10-24T04:09:17.149Z,9.60
2022-10-24T04:11:53.669Z,9.70
2022-10-24T04:14:26.513Z,9.70
2022-10-24T04:20:04.059Z,9.70
2022-10-24T04:22:52.132Z,9.70
2022-10-24T04:25:22.328Z,9.80
2022-10-24T04:28:01.894Z,9.70
2022-10-24T04:30:49.970Z,9.70
2022-10-24T04:33:16.965Z,9.80
2022-10-24T04:35:48.293Z,9.80
2022-10-24T04:38:33.597Z,9.80
2022-10-24T04:41:07.333Z,9.80
2022-10-24T04:43:49.247Z,9.80
2022-10-24T04:46:16.134Z,9.80
2022-10-24T04:48:42.981Z,9.90
2022-10-24T04:51:18.672Z,9.90
2022-10-24T05:18:26.877Z,9.90
2022-10-24T05:20:57.429Z,10.00
2022-10-24T05:23:24.490Z,9.90
2022-10-24T05:25:51.523Z,9.90
2022-10-24T05:28:18.583Z,9.90
2022-10-24T05:30:45.879Z,9.90
2022-10-24T05:33:13.366Z,9.80
2022-10-24T05:35:41.747Z,9.80
2022-10-24T05:38:09.461Z,9.90
2022-10-24T05:40:36.322Z,9.80
2022-10-24T05:43:03.853Z,9.80
2022-10-24T05:45:30.689Z,10.00
2022-10-24T05:47:58.311Z,9.90
2022-10-24T05:50:27.070Z,9.90
2022-10-24T05:52:54.237Z,9.90
2022-10-24T05:55:21.281Z,9.90
2022-10-24T05:57:48.485Z,9.90
2022-10-24T06:00:16.839Z,10.00
2022-10-24T06:02:44.237Z,10.00
2022-10-24T06:05:13.975Z,10.10
2022-10-24T06:07:42.253Z,10.10
2022-10-24T06:10:18.619Z,10.20
2022-10-24T06:12:45.715Z,10.20
2022-10-24T06:15:13.798Z,10.20
2022-10-24T06:17:40.828Z,10.30
2022-10-24T06:20:08.309Z,10.40
2022-10-24T06:22:35.227Z,10.40
2022-10-24T06:25:02.046Z,10.50
2022-10-24T06:27:29.118Z,10.60
2022-10-24T06:29:55.975Z,10.60
2022-10-24T06:32:23.105Z,10.50
2022-10-24T06:34:50.822Z,10.50
2022-10-24T06:37:17.850Z,10.50
2022-10-24T06:39:44.717Z,10.50
2022-10-24T06:42:11.548Z,10.50
2022-10-24T06:44:38.716Z,10.60
2022-10-24T06:47:06.288Z,10.60
2022-10-24T06:49:33.443Z,10.60
2022-10-24T06:52:00.323Z,10.60
2022-10-24T06:54:30.101Z,10.60
2022-10-24T06:56:58.171Z,10.60
2022-10-24T06:59:28.049Z,10.70
2022-10-24T07:01:55.554Z,10.60
2022-10-24T07:04:22.726Z,10.60
2022-10-24T07:06:49.508Z,10.70
2022-10-24T07:09:17.228Z,10.70
2022-10-24T07:11:45.166Z,10.70
2022-10-24T07:14:12.554Z,10.70
2022-10-24T07:16:49.191Z,10.80
2022-10-24T07:19:16.020Z,10.80
2022-10-24T07:21:43.084Z,10.90
2022-10-24T07:24:12.850Z,11.00
2022-10-24T07:26:39.876Z,11.00
2022-10-24T07:29:06.777Z,10.90
2022-10-24T07:31:35.944Z,10.90
2022-10-24T07:34:07.314Z,11.00
2022-10-24T07:36:34.693Z,11.10
2022-10-24T07:39:02.036Z,11.10
2022-10-24T07:41:30.666Z,11.10
2022-10-24T07:43:59.361Z,11.20
2022-10-24T07:46:27.340Z,11.20
2022-10-24T07:48:54.586Z,11.20
2022-10-24T07:51:22.144Z,11.20
2022-10-24T07:53:49.490Z,11.30
2022-10-24T07:56:28.173Z,11.30
2022-10-24T07:58:56.676Z,11.40
2022-10-24T08:01:32.024Z,11.50
2022-10-24T08:03:58.955Z,11.60
2022-10-24T08:06:30.135Z,11.50
2022-10-24T08:08:57.090Z,11.60
2022-10-24T08:11:28.749Z,11.50
2022-10-24T08:13:59.720Z,11.50
2022-10-24T08:16:38.748Z,11.60
2022-10-24T08:19:08.790Z,11.70
2022-10-24T08:21:43.387Z,11.70
2022-10-24T08:24:10.462Z,11.70
2022-10-24T08:26:40.452Z,11.90
2022-10-24T08:29:11.797Z,11.90
2022-10-24T08:31:39.210Z,11.80
2022-10-24T08:34:06.200Z,11.90
2022-10-24T08:36:35.763Z,12.00
2022-10-24T08:39:06.569Z,12.20
2022-10-24T08:41:39.906Z,12.30
2022-10-24T08:44:22.154Z,12.20
2022-10-24T08:47:04.431Z,12.20
2022-10-24T08:49:44.193Z,12.30
2022-10-24T08:52:53.835Z,12.30
2022-10-24T09:02:39.842Z,12.60
2022-10-24T09:05:18.885Z,12.60
2022-10-24T09:07:48.213Z,12.70
2022-10-24T09:10:38.700Z,12.90
2022-10-24T09:13:14.630Z,13.20
2022-10-24T09:15:44.660Z,13.30
2022-10-24T09:18:25.541Z,13.50
2022-10-24T09:20:55.762Z,13.70
2022-10-24T09:23:32.710Z,13.80
2022-10-24T09:26:47.262Z,14.00
2022-10-24T09:29:23.791Z,14.20
2022-10-24T09:31:50.698Z,14.20
2022-10-24T09:34:20.383Z,14.40
2022-10-24T09:37:23.500Z,14.70
2022-10-24T09:40:36.552Z,14.90
2022-10-24T09:43:23.055Z,15.30
2022-10-24T09:46:06.545Z,15.20
2022-10-24T09:52:07.054Z,15.20
2022-10-24T09:52:20.900Z,15.20
2022-10-24T09:55:03.084Z,15.20
2022-10-24T09:57:39.351Z,15.10
2022-10-24T10:00:16.940Z,14.90
2022-10-24T10:03:06.634Z,14.80
2022-10-24T10:05:54.580Z,14.90
2022-10-24T10:08:35.311Z,15.00
2022-10-24T10:11:08.988Z,15.00
2022-10-24T10:14:11.292Z,15.10
2022-10-24T10:16:41.018Z,15.10
2022-10-24T10:19:39.111Z,15.10
2022-10-24T10:22:32.251Z,15.30
2022-10-24T10:25:00.555Z,15.50
2022-10-24T10:27:34.752Z,15.60
2022-10-24T10:30:15.001Z,15.80
2022-10-24T10:33:41.069Z,15.80
2022-10-24T10:36:58.998Z,15.90
2022-10-24T10:40:07.386Z,15.70
2022-10-24T10:42:49.597Z,16.00
2022-10-24T10:45:19.931Z,16.40
2022-10-24T10:48:01.901Z,16.70
2022-10-24T10:50:34.899Z,17.00
2022-10-24T10:53:31.880Z,17.20
2022-10-24T10:55:58.629Z,17.30
2022-10-24T10:58:33.076Z,17.30
2022-10-24T11:01:10.914Z,17.50
2022-10-24T11:04:00.627Z,17.60
2022-10-24T11:06:46.275Z,17.20
2022-10-24T11:09:49.339Z,17.10
2022-10-24T11:12:36.869Z,17.20
2022-10-24T11:15:07.747Z,17.50
2022-10-24T11:17:37.413Z,17.70
2022-10-24T11:20:16.261Z,17.70
2022-10-24T11:22:49.796Z,17.60
2022-10-24T11:25:31.958Z,17.30
2022-10-24T11:28:12.160Z,17.40
2022-10-24T11:30:48.490Z,17.20
2022-10-24T11:33:20.931Z,17.20
2022-10-24T11:36:13.228Z,17.30
2022-10-24T11:39:35.111Z,17.20
2022-10-24T11:42:17.560Z,17.30
2022-10-24T11:45:10.469Z,17.10
2022-10-24T12:11:31.929Z,20.70
2022-10-24T12:14:19.048Z,21.70
2022-10-24T12:17:23.781Z,22.30
2022-10-24T12:19:52.003Z,22.60
2022-10-24T12:25:51.384Z,24.10
2022-10-24T12:28:26.013Z,24.70
2022-10-24T12:31:29.363Z,25.50
2022-10-24T12:34:23.006Z,26.30
2022-10-24T12:37:09.533Z,26.20
2022-10-24T12:39:47.356Z,25.90
2022-10-24T12:42:37.654Z,25.50
2022-10-24T12:59:32.236Z,22.80
2022-10-24T13:08:52.372Z,21.40
2022-10-24T13:11:54.498Z,21.60
2022-10-24T13:22:58.042Z,21.50
2022-10-24T13:28:43.268Z,21.60
2022-10-24T13:33:54.299Z,20.70
2022-10-24T13:36:42.436Z,20.70
2022-10-24T13:39:28.257Z,20.80
2022-10-24T13:45:52.409Z,20.60
2022-10-24T13:48:21.582Z,20.50
2022-10-24T13:50:54.116Z,20.00
2022-10-24T13:53:57.073Z,19.90
2022-10-24T13:56:27.773Z,19.30
2022-10-24T13:58:54.746Z,19.40
2022-10-24T14:01:44.745Z,19.30
2022-10-24T14:04:12.224Z,19.30
2022-10-24T14:06:39.062Z,19.30
2022-10-24T14:09:10.481Z,19.20
2022-10-24T14:11:42.388Z,19.10
2022-10-24T14:14:30.342Z,19.00
2022-10-24T14:17:33.776Z,18.90
2022-10-24T14:20:19.643Z,18.70
2022-10-24T14:22:46.961Z,18.60
2022-10-24T14:25:32.042Z,18.60
2022-10-24T14:28:01.991Z,18.50
2022-10-24T14:30:34.633Z,18.40
2022-10-24T14:33:24.204Z,18.20
2022-10-24T14:35:55.071Z,18.00
2022-10-24T14:38:25.771Z,17.90
2022-10-24T14:41:06.179Z,17.70
2022-10-24T14:43:34.037Z,17.70
2022-10-24T14:46:09.616Z,17.50
2022-10-24T14:48:38.026Z,17.40
2022-10-24T14:51:22.162Z,17.30
2022-10-24T14:53:50.903Z,17.10
2022-10-24T14:56:25.658Z,17.10
2022-10-24T14:58:55.416Z,17.00
2022-10-24T15:01:23.823Z,16.90
2022-10-24T15:03:55.971Z,16.80
2022-10-24T15:06:59.379Z,16.70
2022-10-24T15:09:26.615Z,16.60
2022-10-24T15:12:01.918Z,16.50
2022-10-24T15:14:35.810Z,16.40
2022-10-24T15:17:17.535Z,16.30
2022-10-24T15:19:46.141Z,16.30
2022-10-24T15:22:35.983Z,16.20
2022-10-24T15:25:18.515Z,16.10
2022-10-24T15:27:46.332Z,16.00
2022-10-24T15:30:20.318Z,15.90
2022-10-24T15:32:48.715Z,15.90
2022-10-24T15:35:16.851Z,15.80
2022-10-24T15:38:02.743Z,15.70
2022-10-24T15:40:35.873Z,15.70
2022-10-24T15:43:03.229Z,15.60
2022-10-24T15:45:30.080Z,15.60
2022-10-24T15:47:56.914Z,15.50
2022-10-24T15:50:24.374Z,15.50
2022-10-24T15:52:54.907Z,15.50
2022-10-24T15:55:25.505Z,15.40
2022-10-24T15:57:53.184Z,15.40
2022-10-24T16:00:22.103Z,15.30
2022-10-24T16:02:50.994Z,15.30
2022-10-24T16:05:24.311Z,15.30
2022-10-24T16:07:54.611Z,15.30
2022-10-24T16:10:22.925Z,15.30
2022-10-24T16:12:50.666Z,15.20
2022-10-24T16:15:29.700Z,15.20
2022-10-24T16:17:56.625Z,15.20
2022-10-24T16:20:23.701Z,15.10
2022-10-24T16:22:51.651Z,15.10
2022-10-24T16:25:25.243Z,15.10
2022-10-24T16:27:52.756Z,15.10
2022-10-24T16:30:22.107Z,15.00
2022-10-24T16:32:49.459Z,15.00
2022-10-24T16:35:21.001Z,15.00
2022-10-24T16:37:48.161Z,14.90
2022-10-24T16:40:15.722Z,14.90
2022-10-24T16:42:43.323Z,14.90
2022-10-24T16:45:11.214Z,14.90
2022-10-24T16:47:41.401Z,14.90
2022-10-24T16:50:12.641Z,14.80
2022-10-24T16:52:39.567Z,14.90
2022-10-24T16:55:06.710Z,14.80
2022-10-24T16:57:33.592Z,14.80
2022-10-24T17:00:06.483Z,14.80
2022-10-24T17:02:36.521Z,14.80
2022-10-24T17:05:03.584Z,14.80
2022-10-24T17:07:33.746Z,14.70
2022-10-24T17:10:00.764Z,14.80
2022-10-24T17:12:27.926Z,14.70
2022-10-24T17:14:54.827Z,14.70
2022-10-24T17:17:21.665Z,14.70
2022-10-24T17:19:52.297Z,14.70
2022-10-24T17:22:19.298Z,14.70
2022-10-24T17:24:46.264Z,14.70
2022-10-24T17:27:15.039Z,14.70
2022-10-24T17:29:43.800Z,14.70
2022-10-24T17:32:13.153Z,14.70
2022-10-24T17:34:42.466Z,14.70
2022-10-24T17:37:22.714Z,14.70
2022-10-24T17:40:05.750Z,14.70
2022-10-24T17:42:33.610Z,14.70
2022-10-24T17:45:00.617Z,14.70
2022-10-24T17:47:27.586Z,14.70
2022-10-24T17:49:54.592Z,14.60
2022-10-24T17:52:23.893Z,14.60
2022-10-24T17:54:51.263Z,14.60
2022-10-24T17:57:18.090Z,14.50
2022-10-24T17:59:45.759Z,14.60
2022-10-24T18:02:14.804Z,14.60
2022-10-24T18:04:43.016Z,14.60
2022-10-24T18:07:10.637Z,14.60
2022-10-24T18:09:40.349Z,14.60
2022-10-24T18:12:07.847Z,14.60
2022-10-24T18:14:39.619Z,14.60
2022-10-24T18:17:06.619Z,14.60
2022-10-24T18:19:33.585Z,14.60
2022-10-24T18:22:00.517Z,14.60
2022-10-24T18:24:40.104Z,14.60
2022-10-24T18:27:28.968Z,14.50
2022-10-24T18:34:40.799Z,14.50
2022-10-24T18:40:43.273Z,14.50
2022-10-24T18:43:19.306Z,14.50
2022-10-24T18:45:48.345Z,14.40
2022-10-24T18:52:00.538Z,14.50
2022-10-24T18:54:48.423Z,14.50
2022-10-24T18:57:37.258Z,14.40
2022-10-24T19:40:55.706Z,14.10
2022-10-24T19:46:28.809Z,14.20
2022-10-24T19:49:20.086Z,14.10
2022-10-24T19:52:27.582Z,14.10
2022-10-24T19:54:57.591Z,14.10
2022-10-24T19:57:24.469Z,14.10
2022-10-24T20:00:19.694Z,14.10
2022-10-24T20:03:08.422Z,14.00
2022-10-24T20:14:56.014Z,14.00
2022-10-24T20:27:58.258Z,13.90
2022-10-24T20:30:31.350Z,13.90
2022-10-24T20:34:40.427Z,13.90
2022-10-24T20:37:01.373Z,13.90
2022-10-24T20:51:42.592Z,13.80
2022-10-24T21:31:28.835Z,14.10
2022-10-24T21:34:19.561Z,14.20
2022-10-24T21:39:39.893Z,14.10
2022-10-24T21:48:04.170Z,14.20
2022-10-24T22:18:04.455Z,14.50
2022-10-24T22:27:22.957Z,14.50
2022-10-24T22:30:10.625Z,14.50
2022-10-24T22:38:59.350Z,14.60
2022-10-24T22:41:46.146Z,14.60
2022-10-24T22:44:38.800Z,14.60
2022-10-24T22:51:00.883Z,14.50
2022-10-24T22:54:13.646Z,14.60
2022-10-24T22:56:44.564Z,14.60
2022-10-24T22:59:44.410Z,14.50
2022-10-24T23:06:50.391Z,14.50
2022-10-24T23:09:25.976Z,14.50
2022-10-24T23:11:53.260Z,14.60
2022-10-24T23:14:20.677Z,14.60
2022-10-24T23:16:58.991Z,14.60
2022-10-24T23:19:45.988Z,14.50
2022-10-24T23:22:34.457Z,14.60
2022-10-24T23:25:01.774Z,14.70
2022-10-24T23:27:36.473Z,14.70
2022-10-24T23:30:18.207Z,14.70
2022-10-24T23:32:46.169Z,14.70
2022-10-24T23:35:17.284Z,14.80
2022-10-24T23:37:52.582Z,14.80
2022-10-24T23:40:30.752Z,14.80
2022-10-24T23:42:58.267Z,14.80
2022-10-24T23:45:35.977Z,14.90
2022-10-24T23:48:18.593Z,15.00
2022-10-24T23:51:02.198Z,14.90
2022-10-24T23:53:55.005Z,14.90
2022-10-24T23:56:27.568Z,14.80
2022-10-24T23:58:55.319Z,14.90
